createdAt,value
2023-02-01T00:01:07.507Z,0.50
2023-02-01T00:03:34.850Z,0.93
2023-02-01T00:06:02.218Z,2.85
2023-02-01T00:08:29.896Z,0.93
2023-02-01T00:11:01.076Z,1.63
2023-02-01T00:13:31.179Z,1.15
2023-02-01T00:16:13.880Z,2.42
2023-02-01T00:18:41.397Z,0.82
2023-02-01T00:21:08.528Z,0.80
2023-02-01T00:23:37.813Z,0.70
2023-02-01T00:26:06.855Z,1.38
2023-02-01T00:28:35.210Z,0.93
2023-02-01T00:31:03.991Z,1.20
2023-02-01T00:33:32.985Z,1.27
2023-02-01T00:36:02.112Z,0.50
2023-02-01T00:38:31.254Z,0.63
2023-02-01T00:41:15.458Z,1.08
2023-02-01T00:43:43.041Z,0.95
2023-02-01T00:46:11.013Z,2.75
2023-02-01T00:48:38.835Z,1.33
2023-02-01T00:51:12.129Z,1.05
2023-02-01T00:53:39.408Z,0.90
2023-02-01T00:56:07.324Z,0.63
2023-02-01T00:58:35.125Z,0.63
2023-02-01T01:01:09.127Z,1.67
2023-02-01T01:03:38.932Z,0.82
2023-02-01T01:06:18.023Z,0.70
2023-02-01T01:08:45.501Z,1.40
2023-02-01T01:11:19.243Z,1.92
2023-02-01T01:13:51.226Z,1.20
2023-02-01T01:16:19.525Z,1.20
2023-02-01T01:18:47.213Z,1.77
2023-02-01T01:21:15.963Z,2.47
2023-02-01T01:23:44.139Z,3.17
2023-02-01T01:26:19.213Z,2.10
2023-02-01T01:28:46.899Z,2.05
2023-02-01T01:31:17.094Z,1.48
2023-02-01T01:33:47.386Z,1.45
2023-02-01T01:36:14.601Z,0.88
2023-02-01T01:38:42.721Z,3.08
2023-02-01T01:41:13.759Z,2.35
2023-02-01T01:44:05.645Z,1.75
2023-02-01T01:46:42.073Z,1.50
2023-02-01T01:49:12.223Z,1.83
2023-02-01T01:51:49.593Z,1.02
2023-02-01T01:54:34.384Z,0.60
2023-02-01T01:57:10.626Z,1.52
2023-02-01T01:59:40.722Z,1.30
2023-02-01T02:02:07.973Z,2.47
2023-02-01T02:04:36.188Z,1.45
2023-02-01T02:07:07.050Z,0.95
2023-02-01T02:09:34.333Z,1.52
2023-02-01T02:12:01.496Z,4.25
2023-02-01T02:14:29.169Z,5.20
2023-02-01T02:17:32.609Z,5.10
2023-02-01T02:20:29.244Z,3.72
2023-02-01T02:23:35.709Z,5.72
2023-02-01T02:26:21.764Z,1.33
2023-02-01T02:28:57.806Z,1.42
2023-02-01T02:31:33.910Z,1.88
2023-02-01T02:34:07.966Z,1.83
2023-02-01T02:36:44.210Z,2.30
2023-02-01T02:39:52.464Z,1.77
2023-02-01T02:43:17.242Z,4.10
2023-02-01T02:46:09.531Z,0.98
2023-02-01T02:48:44.339Z,1.80
2023-02-01T02:51:52.480Z,2.08
2023-02-01T02:54:44.170Z,1.27
2023-02-01T02:57:52.553Z,2.03
2023-02-01T03:00:40.702Z,3.03
2023-02-01T03:03:26.861Z,3.08
2023-02-01T03:05:54.420Z,1.75
2023-02-01T03:08:24.482Z,1.13
2023-02-01T03:11:17.782Z,1.40
2023-02-01T03:13:47.868Z,2.53
2023-02-01T03:16:33.247Z,1.38
2023-02-01T03:19:38.951Z,1.58
2023-02-01T03:24:44.255Z,1.38
2023-02-01T03:27:25.735Z,1.27
2023-02-01T03:30:00.604Z,1.65
2023-02-01T03:32:27.956Z,1.65
2023-02-01T03:34:55.746Z,1.55
2023-02-01T03:37:29.105Z,1.10
2023-02-01T03:40:02.353Z,1.80
2023-02-01T03:42:38.436Z,2.22
2023-02-01T03:45:20.133Z,1.85
2023-02-01T03:47:51.825Z,1.33
2023-02-01T03:50:24.386Z,1.80
2023-02-01T03:53:10.236Z,1.45
2023-02-01T03:55:38.513Z,1.95
2023-02-01T03:58:09.433Z,2.22
2023-02-01T04:00:37.378Z,1.73
2023-02-01T04:03:06.541Z,2.20
2023-02-01T04:05:34.541Z,2.50
2023-02-01T04:08:01.697Z,2.40
2023-02-01T04:10:29.940Z,2.25
2023-02-01T04:12:57.085Z,2.75
2023-02-01T04:15:24.380Z,3.22
2023-02-01T04:17:51.576Z,1.98
2023-02-01T04:20:18.985Z,1.50
2023-02-01T04:22:46.157Z,4.20
2023-02-01T04:25:13.471Z,2.28
2023-02-01T04:27:43.638Z,1.63
2023-02-01T04:30:11.481Z,1.60
2023-02-01T04:32:39.986Z,1.55
2023-02-01T04:35:08.283Z,2.47
2023-02-01T04:37:36.067Z,1.38
2023-02-01T04:40:04.881Z,2.40
2023-02-01T04:42:32.102Z,3.03
2023-02-01T04:44:59.278Z,2.25
2023-02-01T04:47:27.625Z,2.65
2023-02-01T04:49:54.812Z,1.70
2023-02-01T04:52:22.034Z,2.95
2023-02-01T04:54:49.251Z,3.47
2023-02-01T04:57:16.475Z,1.95
2023-02-01T04:59:43.681Z,2.45
2023-02-01T05:02:10.927Z,1.88
2023-02-01T05:04:38.149Z,1.90
2023-02-01T05:07:05.332Z,4.53
2023-02-01T05:09:32.543Z,3.50
2023-02-01T05:12:18.396Z,2.58
2023-02-01T05:14:45.708Z,3.22
2023-02-01T05:17:12.887Z,3.50
2023-02-01T05:19:40.076Z,2.13
2023-02-01T05:22:07.189Z,1.88
2023-02-01T05:24:34.396Z,2.35
2023-02-01T05:27:01.723Z,2.17
2023-02-01T05:29:28.984Z,1.70
2023-02-01T05:31:56.549Z,2.67
2023-02-01T05:34:24.354Z,1.40
2023-02-01T05:36:51.619Z,2.70
2023-02-01T05:39:19.103Z,1.98
2023-02-01T05:41:46.571Z,2.75
2023-02-01T05:44:13.769Z,2.97
2023-02-01T05:46:41.008Z,1.67
2023-02-01T05:49:09.241Z,5.47
2023-02-01T05:51:36.432Z,2.58
2023-02-01T05:54:03.691Z,2.00
2023-02-01T05:56:30.958Z,2.25
2023-02-01T05:58:58.631Z,2.28
2023-02-01T06:01:25.835Z,2.63
2023-02-01T06:03:53.060Z,3.15
2023-02-01T06:06:21.102Z,3.05
2023-02-01T06:08:48.375Z,2.40
2023-02-01T06:11:26.781Z,2.97
2023-02-01T06:13:58.958Z,3.15
2023-02-01T06:16:26.227Z,2.88
2023-02-01T06:18:53.481Z,4.20
2023-02-01T06:21:25.065Z,2.15
2023-02-01T06:23:56.123Z,3.65
2023-02-01T06:26:23.531Z,2.38
2023-02-01T06:28:51.710Z,3.47
2023-02-01T06:31:19.002Z,3.05
2023-02-01T06:33:48.106Z,3.25
2023-02-01T06:36:17.109Z,2.88
2023-02-01T06:38:44.350Z,2.60
2023-02-01T06:41:12.331Z,3.67
2023-02-01T06:43:39.788Z,3.63
2023-02-01T06:46:13.035Z,6.03
2023-02-01T06:48:40.259Z,3.58
2023-02-01T06:51:07.723Z,3.88
2023-02-01T06:53:35.536Z,5.72
2023-02-01T06:56:04.350Z,3.45
2023-02-01T06:58:33.053Z,3.33
2023-02-01T07:01:09.950Z,6.57
2023-02-01T07:03:37.211Z,5.35
2023-02-01T07:06:05.822Z,3.83
2023-02-01T07:08:35.944Z,4.43
2023-02-01T07:11:12.238Z,4.75
2023-02-01T07:13:40.019Z,4.00
2023-02-01T07:16:11.516Z,4.22
2023-02-01T07:18:38.786Z,3.88
2023-02-01T07:21:06.177Z,4.30
2023-02-01T07:23:33.345Z,3.85
2023-02-01T07:26:03.203Z,4.75
2023-02-01T07:28:32.622Z,3.92
2023-02-01T07:31:19.508Z,3.60
2023-02-01T07:33:46.980Z,4.28
2023-02-01T07:36:17.081Z,3.72
2023-02-01T07:38:44.994Z,2.90
2023-02-01T07:41:12.312Z,2.75
2023-02-01T07:43:39.563Z,3.47
2023-02-01T07:46:08.229Z,5.00
2023-02-01T07:48:35.516Z,4.25
2023-02-01T07:51:07.524Z,3.35
2023-02-01T07:53:35.441Z,3.63
2023-02-01T07:56:04.646Z,5.82
2023-02-01T07:58:31.802Z,3.90
2023-02-01T08:01:17.450Z,4.10
2023-02-01T08:03:44.592Z,5.32
2023-02-01T08:06:11.724Z,4.18
2023-02-01T08:08:39.189Z,2.70
2023-02-01T08:11:07.922Z,4.38
2023-02-01T08:13:36.600Z,4.85
2023-02-01T08:16:06.972Z,4.03
2023-02-01T08:18:35.936Z,3.42
2023-02-01T08:21:12.510Z,2.88
2023-02-01T08:23:41.515Z,4.50
2023-02-01T08:26:10.072Z,4.63
2023-02-01T08:28:38.461Z,4.00
2023-02-01T08:31:07.770Z,2.58
2023-02-01T08:33:35.687Z,3.05
2023-02-01T08:36:04.534Z,3.55
2023-02-01T08:38:31.762Z,3.47
2023-02-01T08:41:04.789Z,3.63
2023-02-01T08:43:31.946Z,3.35
2023-02-01T08:45:59.169Z,2.67
2023-02-01T08:48:26.386Z,2.88
2023-02-01T08:50:53.636Z,3.20
2023-02-01T08:53:20.781Z,3.70
2023-02-01T08:55:48.360Z,2.53
2023-02-01T08:58:18.135Z,2.47
2023-02-01T09:00:46.105Z,5.28
2023-02-01T09:03:13.855Z,3.55
2023-02-01T09:05:49.527Z,3.67
2023-02-01T09:08:17.783Z,3.58
2023-02-01T09:10:44.908Z,6.40
2023-02-01T09:13:12.624Z,2.17
2023-02-01T09:15:39.991Z,2.60
2023-02-01T09:18:07.137Z,3.38
2023-02-01T09:20:34.465Z,3.22
2023-02-01T09:23:01.579Z,4.30
2023-02-01T09:25:29.607Z,3.45
2023-02-01T09:27:56.759Z,3.35
2023-02-01T09:30:24.357Z,2.55
2023-02-01T09:32:51.720Z,3.45
2023-02-01T09:35:18.997Z,1.80
2023-02-01T09:37:46.155Z,2.25
2023-02-01T09:40:17.876Z,3.13
2023-02-01T09:43:03.966Z,3.75
2023-02-01T09:45:49.289Z,2.47
2023-02-01T09:48:24.112Z,2.47
2023-02-01T09:50:58.792Z,2.50
2023-02-01T09:53:44.048Z,3.28
2023-02-01T09:56:19.460Z,1.52
2023-02-01T09:58:58.071Z,2.08
2023-02-01T10:01:28.438Z,3.85
2023-02-01T10:04:10.064Z,5.80
2023-02-01T10:06:37.261Z,3.63
2023-02-01T10:09:35.322Z,4.75
2023-02-01T10:12:31.090Z,3.65
2023-02-01T10:15:22.703Z,1.55
2023-02-01T10:18:24.554Z,1.95
2023-02-01T10:21:15.789Z,2.25
2023-02-01T10:24:21.748Z,3.15
2023-02-01T10:27:07.663Z,2.28
2023-02-01T10:29:40.380Z,2.15
2023-02-01T10:32:21.326Z,3.80
2023-02-01T10:34:57.607Z,3.25
2023-02-01T10:37:36.429Z,2.22
2023-02-01T10:40:25.856Z,3.80
2023-02-01T10:43:00.276Z,2.35
2023-02-01T10:45:31.057Z,1.90
2023-02-01T10:48:00.779Z,3.67
2023-02-01T10:51:01.805Z,2.78
2023-02-01T10:54:01.891Z,4.93
2023-02-01T10:56:30.308Z,4.80
2023-02-01T10:59:06.447Z,3.63
2023-02-01T11:01:41.078Z,3.42
2023-02-01T11:06:53.872Z,3.88
2023-02-01T11:09:26.864Z,3.63
2023-02-01T11:12:01.175Z,2.53
2023-02-01T11:14:40.466Z,5.10
2023-02-01T11:17:19.143Z,2.83
2023-02-01T11:19:59.311Z,3.50
2023-02-01T11:22:29.214Z,4.43
2023-02-01T11:24:57.028Z,6.85
2023-02-01T11:27:27.848Z,2.33
2023-02-01T11:30:00.654Z,3.33
2023-02-01T11:32:28.958Z,2.83
2023-02-01T11:34:58.873Z,4.10
2023-02-01T11:37:33.522Z,2.75
2023-02-01T11:43:14.410Z,3.33
2023-02-01T11:45:41.689Z,2.90
2023-02-01T11:48:26.275Z,2.33
2023-02-01T11:51:24.469Z,4.55
2023-02-01T11:54:03.520Z,1.85
2023-02-01T11:56:43.523Z,2.63
2023-02-01T11:59:45.875Z,2.00
2023-02-01T12:02:45.054Z,3.97
2023-02-01T12:05:42.378Z,2.60
2023-02-01T12:08:17.238Z,3.42
2023-02-01T12:11:22.795Z,2.22
2023-02-01T12:14:27.258Z,5.40
2023-02-01T12:17:22.113Z,4.70
2023-02-01T12:20:11.117Z,2.92
2023-02-01T12:22:50.827Z,3.55
2023-02-01T12:25:43.535Z,2.60
2023-02-01T12:28:10.689Z,2.78
2023-02-01T12:30:46.095Z,6.65
2023-02-01T12:33:26.356Z,2.13
2023-02-01T12:36:08.905Z,4.68
2023-02-01T12:38:53.371Z,2.65
2023-02-01T12:41:32.523Z,4.18
2023-02-01T12:44:09.836Z,2.03
2023-02-01T12:46:44.753Z,3.25
2023-02-01T12:49:26.742Z,3.35
2023-02-01T12:52:00.317Z,3.22
2023-02-01T12:54:53.217Z,2.15
2023-02-01T12:57:35.216Z,4.45
2023-02-01T13:00:23.830Z,3.60
2023-02-01T13:03:03.468Z,4.70
2023-02-01T13:05:45.944Z,3.22
2023-02-01T13:08:22.721Z,3.47
2023-02-01T13:11:04.497Z,3.30
2023-02-01T13:13:49.256Z,3.00
2023-02-01T13:16:33.954Z,3.42
2023-02-01T13:19:24.211Z,2.90
2023-02-01T13:22:04.217Z,2.70
2023-02-01T13:24:35.773Z,4.07
2023-02-01T13:27:03.753Z,2.58
2023-02-01T13:29:32.624Z,1.98
2023-02-01T13:32:18.487Z,1.50
2023-02-01T13:35:00.742Z,2.08
2023-02-01T13:37:56.428Z,4.57
2023-02-01T13:43:03.855Z,1.60
2023-02-01T13:45:36.117Z,5.40
2023-02-01T13:48:07.562Z,3.42
2023-02-01T13:50:39.316Z,3.28
2023-02-01T13:53:18.566Z,4.55
2023-02-01T13:55:49.186Z,4.85
2023-02-01T13:58:24.046Z,4.35
2023-02-01T14:00:54.159Z,2.00
2023-02-01T14:03:45.253Z,5.30
2023-02-01T14:06:37.245Z,5.07
2023-02-01T14:09:20.826Z,2.65
2023-02-01T14:11:58.747Z,4.93
2023-02-01T14:14:26.701Z,5.82
2023-02-01T14:16:53.796Z,4.40
2023-02-01T14:19:22.864Z,3.45
2023-02-01T14:22:00.044Z,6.60
2023-02-01T14:24:32.350Z,5.25
2023-02-01T14:27:03.042Z,4.72
2023-02-01T14:29:45.145Z,7.35
2023-02-01T14:32:23.565Z,6.38
2023-02-01T14:34:56.308Z,7.47
2023-02-01T14:37:23.980Z,9.43
2023-02-01T14:39:59.271Z,5.15
2023-02-01T14:42:45.565Z,5.63
2023-02-01T14:45:25.278Z,6.53
2023-02-01T14:47:52.819Z,8.40
2023-02-01T14:50:47.861Z,6.50
2023-02-01T14:53:24.835Z,4.03
2023-02-01T14:55:55.059Z,8.93
2023-02-01T14:58:28.101Z,8.57
2023-02-01T15:01:00.987Z,8.57
2023-02-01T15:03:30.830Z,6.80
2023-02-01T15:06:02.037Z,8.35
2023-02-01T15:08:38.160Z,6.60
2023-02-01T15:11:13.604Z,4.90
2023-02-01T15:13:40.810Z,6.03
2023-02-01T15:16:16.593Z,5.95
2023-02-01T15:18:43.841Z,4.78
2023-02-01T15:21:28.138Z,4.10
2023-02-01T15:24:30.230Z,6.35
2023-02-01T15:27:04.833Z,7.30
2023-02-01T15:32:02.345Z,5.25
2023-02-01T15:34:52.085Z,4.95
2023-02-01T15:37:23.359Z,4.18
2023-02-01T15:40:10.468Z,5.57
2023-02-01T15:42:58.913Z,7.63
2023-02-01T15:45:33.461Z,4.72
2023-02-01T15:50:30.598Z,10.80
2023-02-01T15:52:57.959Z,7.20
2023-02-01T15:55:39.902Z,6.40
2023-02-01T15:58:24.921Z,3.85
2023-02-01T16:00:54.479Z,5.68
2023-02-01T16:03:38.613Z,5.50
2023-02-01T16:06:26.040Z,4.13
2023-02-01T16:09:02.829Z,5.85
2023-02-01T16:11:41.062Z,5.53
2023-02-01T16:14:08.296Z,5.32
2023-02-01T16:16:35.416Z,3.63
2023-02-01T16:19:02.900Z,5.57
2023-02-01T16:21:30.198Z,5.45
2023-02-01T16:23:57.412Z,3.17
2023-02-01T16:26:24.740Z,7.07
2023-02-01T16:28:52.242Z,6.43
2023-02-01T16:31:25.393Z,6.53
2023-02-01T16:33:53.390Z,8.95
2023-02-01T16:36:21.395Z,5.97
2023-02-01T16:38:50.525Z,7.30
2023-02-01T16:41:20.480Z,6.75
2023-02-01T16:43:53.970Z,8.57
2023-02-01T16:46:26.017Z,6.43
2023-02-01T16:48:59.364Z,8.52
2023-02-01T16:51:32.388Z,8.95
2023-02-01T16:54:01.433Z,5.40
2023-02-01T16:56:34.656Z,7.90
2023-02-01T16:59:02.691Z,7.75
2023-02-01T17:01:30.220Z,10.07
2023-02-01T17:03:57.487Z,4.53
2023-02-01T17:06:29.124Z,6.50
2023-02-01T17:09:03.957Z,4.63
2023-02-01T17:11:35.083Z,4.20
2023-02-01T17:14:23.630Z,4.90
2023-02-01T17:16:52.159Z,4.38
2023-02-01T17:19:24.570Z,8.05
2023-02-01T17:21:57.402Z,3.65
2023-02-01T17:24:33.259Z,5.50
2023-02-01T17:27:12.126Z,3.95
2023-02-01T17:29:39.645Z,3.78
2023-02-01T17:32:15.412Z,7.55
2023-02-01T17:34:43.078Z,4.57
2023-02-01T17:37:28.599Z,5.50
2023-02-01T17:39:56.876Z,3.67
2023-02-01T17:42:26.302Z,5.53
2023-02-01T17:45:22.475Z,8.18
2023-02-01T17:47:50.732Z,5.18
2023-02-01T17:50:18.284Z,7.43
2023-02-01T17:52:46.230Z,5.63
2023-02-01T17:55:22.775Z,5.30
2023-02-01T17:57:52.172Z,3.78
2023-02-01T18:00:22.013Z,3.92
2023-02-01T18:02:49.972Z,4.53
2023-02-01T18:05:39.275Z,4.15
2023-02-01T18:08:08.407Z,6.95
2023-02-01T18:10:36.964Z,7.55
2023-02-01T18:13:05.344Z,5.82
2023-02-01T18:15:33.340Z,9.60
2023-02-01T18:18:01.481Z,11.18
2023-02-01T18:20:29.557Z,7.20
2023-02-01T18:22:57.685Z,7.85
2023-02-01T18:25:28.656Z,6.00
2023-02-01T18:27:58.120Z,5.82
2023-02-01T18:30:33.535Z,7.03
2023-02-01T18:33:04.066Z,4.75
2023-02-01T18:35:35.991Z,9.00
2023-02-01T18:38:04.135Z,6.72
2023-02-01T18:40:36.271Z,8.63
2023-02-01T18:43:04.926Z,7.72
2023-02-01T18:45:38.279Z,6.43
2023-02-01T18:48:07.695Z,8.52
2023-02-01T18:50:38.192Z,4.05
2023-02-01T18:53:13.896Z,6.25
2023-02-01T18:55:42.161Z,5.70
2023-02-01T18:58:14.255Z,7.65
2023-02-01T19:00:43.411Z,9.43
2023-02-01T19:03:15.935Z,6.60
2023-02-01T19:05:44.068Z,8.38
2023-02-01T19:08:13.284Z,6.72
2023-02-01T19:10:43.584Z,5.82
2023-02-01T19:13:15.272Z,5.43
2023-02-01T19:15:44.807Z,4.72
2023-02-01T19:18:13.118Z,8.30
2023-02-01T19:20:46.854Z,9.77
2023-02-01T19:23:15.564Z,8.50
2023-02-01T19:25:48.615Z,7.35
2023-02-01T19:28:18.500Z,6.55
2023-02-01T19:30:48.817Z,7.05
2023-02-01T19:33:19.354Z,6.82
2023-02-01T19:35:47.367Z,7.75
2023-02-01T19:38:15.671Z,5.45
2023-02-01T19:40:43.115Z,8.27
2023-02-01T19:43:11.091Z,9.27
2023-02-01T19:45:39.289Z,8.27
2023-02-01T19:48:08.450Z,5.78
2023-02-01T19:50:36.272Z,6.65
2023-02-01T19:53:04.448Z,5.03
2023-02-01T19:55:33.543Z,10.93
2023-02-01T19:58:15.946Z,11.00
2023-02-01T20:00:43.372Z,4.53
2023-02-01T20:03:11.690Z,12.18
2023-02-01T20:05:43.347Z,7.05
2023-02-01T20:08:11.532Z,6.70
2023-02-01T20:10:46.499Z,4.18
2023-02-01T20:13:14.983Z,6.13
2023-02-01T20:15:43.770Z,5.63
2023-02-01T20:18:12.066Z,7.18
2023-02-01T20:20:43.335Z,6.10
2023-02-01T20:23:11.668Z,5.20
2023-02-01T20:25:41.986Z,4.55
2023-02-01T20:28:10.224Z,4.68
2023-02-01T20:30:38.562Z,6.18
2023-02-01T20:33:06.929Z,4.50
2023-02-01T20:35:35.214Z,3.97
2023-02-01T20:38:04.528Z,5.57
2023-02-01T20:40:32.581Z,3.13
2023-02-01T20:43:00.367Z,6.38
2023-02-01T20:45:30.606Z,6.25
2023-02-01T20:47:58.886Z,5.50
2023-02-01T20:50:27.124Z,3.65
2023-02-01T20:52:55.047Z,6.35
2023-02-01T20:55:23.172Z,4.20
2023-02-01T20:57:54.200Z,4.15
2023-02-01T21:00:25.608Z,6.20
2023-02-01T21:02:53.494Z,6.13
2023-02-01T21:05:21.424Z,4.72
2023-02-01T21:07:49.353Z,9.07
2023-02-01T21:10:17.817Z,6.47
2023-02-01T21:12:45.588Z,5.68
2023-02-01T21:15:13.150Z,8.82
2023-02-01T21:17:41.513Z,8.77
2023-02-01T21:20:09.371Z,8.02
2023-02-01T21:22:37.087Z,7.53
2023-02-01T21:25:04.716Z,7.93
2023-02-01T21:27:32.067Z,8.10
2023-02-01T21:29:59.668Z,7.10
2023-02-01T21:32:27.233Z,7.47
2023-02-01T21:34:54.831Z,7.22
2023-02-01T21:37:26.042Z,7.80
2023-02-01T21:39:53.860Z,5.78
2023-02-01T21:42:22.252Z,7.25
2023-02-01T21:44:49.639Z,5.07
2023-02-01T21:47:19.763Z,7.68
2023-02-01T21:49:51.591Z,5.50
2023-02-01T21:52:19.119Z,8.60
2023-02-01T21:54:46.613Z,5.22
2023-02-01T21:57:13.822Z,5.15
2023-02-01T21:59:42.945Z,10.10
2023-02-01T22:02:16.334Z,9.70
2023-02-01T22:04:44.839Z,4.40
2023-02-01T22:07:12.545Z,6.30
2023-02-01T22:09:40.315Z,4.32
2023-02-01T22:12:10.050Z,4.60
2023-02-01T22:14:37.483Z,3.35
2023-02-01T22:17:04.876Z,5.15
2023-02-01T22:19:32.082Z,8.43
2023-02-01T22:21:59.284Z,7.20
2023-02-01T22:24:26.609Z,6.35
2023-02-01T22:26:53.844Z,6.13
2023-02-01T22:29:21.553Z,6.13
2023-02-01T22:31:48.855Z,4.47
2023-02-01T22:34:16.605Z,10.30
2023-02-01T22:36:44.609Z,8.98
2023-02-01T22:39:11.932Z,7.70
2023-02-01T22:41:39.711Z,4.45
2023-02-01T22:44:07.626Z,6.57
2023-02-01T22:46:34.896Z,4.93
2023-02-01T22:49:03.720Z,6.10
2023-02-01T22:51:32.645Z,6.28
2023-02-01T22:54:00.426Z,7.80
2023-02-01T22:56:33.493Z,5.38
2023-02-01T22:59:03.972Z,6.07
2023-02-01T23:01:31.740Z,10.18
2023-02-01T23:04:01.816Z,7.07
2023-02-01T23:06:29.457Z,3.47
2023-02-01T23:09:03.384Z,4.97
2023-02-01T23:11:30.658Z,2.65
2023-02-01T23:13:58.003Z,4.65
2023-02-01T23:16:25.402Z,15.80
2023-02-01T23:18:52.846Z,5.80
2023-02-01T23:21:22.798Z,4.18
2023-02-01T23:23:55.776Z,4.07
2023-02-01T23:26:26.511Z,3.83
2023-02-01T23:28:55.536Z,3.90
2023-02-01T23:31:25.418Z,5.10
2023-02-01T23:33:56.829Z,6.78
2023-02-01T23:36:25.859Z,4.20
2023-02-01T23:38:53.213Z,4.70
2023-02-01T23:41:22.414Z,4.28
2023-02-01T23:43:59.002Z,3.72
2023-02-01T23:46:29.948Z,2.88
2023-02-01T23:48:58.145Z,6.78
2023-02-01T23:51:26.138Z,5.22
2023-02-01T23:53:54.197Z,5.10
2023-02-01T23:56:33.713Z,4.13
2023-02-01T23:59:03.006Z,7.53
